sensor_id;sensor_type;location;lat;lon;timestamp;P1;durP1;ratioP1;P2;durP2;ratioP2
14088;SDS011;7120;52.890;6.040;2023-06-22T00:00:51;80.17;;;45.77;;
14088;SDS011;7120;52.890;6.040;2023-06-22T00:03:17;86.60;;;46.67;;
14088;SDS011;7120;52.890;6.040;2023-06-22T00:05:44;85.43;;;46.67;;
14088;SDS011;7120;52.890;6.040;2023-06-22T00:08:10;87.80;;;45.07;;
14088;SDS011;7120;52.890;6.040;2023-06-22T00:10:36;83.87;;;48.03;;
14088;SDS011;7120;52.890;6.040;2023-06-22T00:13:01;97.63;;;48.90;;
14088;SDS011;7120;52.890;6.040;2023-06-22T00:15:27;106.07;;;51.90;;
14088;SDS011;7120;52.890;6.040;2023-06-22T00:17:52;87.20;;;46.97;;
14088;SDS011;7120;52.890;6.040;2023-06-22T00:20:18;101.13;;;51.30;;
14088;SDS011;7120;52.890;6.040;2023-06-22T00:22:46;104.47;;;52.07;;
14088;SDS011;7120;52.890;6.040;2023-06-22T00:25:12;101.93;;;52.03;;
14088;SDS011;7120;52.890;6.040;2023-06-22T00:27:38;125.70;;;54.60;;
14088;SDS011;7120;52.890;6.040;2023-06-22T00:30:03;124.93;;;56.93;;
14088;SDS011;7120;52.890;6.040;2023-06-22T00:32:29;110.23;;;55.40;;
14088;SDS011;7120;52.890;6.040;2023-06-22T00:34:54;122.13;;;52.93;;
14088;SDS011;7120;52.890;6.040;2023-06-22T00:37:20;92.23;;;49.30;;
14088;SDS011;7120;52.890;6.040;2023-06-22T00:39:47;95.90;;;49.20;;
14088;SDS011;7120;52.890;6.040;2023-06-22T00:42:13;153.70;;;63.60;;
14088;SDS011;7120;52.890;6.040;2023-06-22T00:44:38;110.73;;;62.50;;
14088;SDS011;7120;52.890;6.040;2023-06-22T00:47:03;105.33;;;61.17;;
14088;SDS011;7120;52.890;6.040;2023-06-22T00:49:29;143.57;;;62.53;;
14088;SDS011;7120;52.890;6.040;2023-06-22T00:51:55;137.77;;;55.53;;
14088;SDS011;7120;52.890;6.040;2023-06-22T00:54:22;92.97;;;51.30;;
14088;SDS011;7120;52.890;6.040;2023-06-22T00:56:58;80.57;;;47.50;;
14088;SDS011;7120;52.890;6.040;2023-06-22T00:59:23;75.17;;;47.53;;
14088;SDS011;7120;52.890;6.040;2023-06-22T01:01:51;93.57;;;51.87;;
14088;SDS011;7120;52.890;6.040;2023-06-22T01:04:16;85.93;;;49.97;;
14088;SDS011;7120;52.890;6.040;2023-06-22T01:06:47;107.50;;;44.80;;
14088;SDS011;7120;52.890;6.040;2023-06-22T01:09:31;84.77;;;40.70;;
14088;SDS011;7120;52.890;6.040;2023-06-22T01:12:01;71.53;;;39.27;;
14088;SDS011;7120;52.890;6.040;2023-06-22T01:17:29;54.03;;;35.33;;
14088;SDS011;7120;52.890;6.040;2023-06-22T01:19:57;77.20;;;46.73;;
14088;SDS011;7120;52.890;6.040;2023-06-22T01:22:28;104.73;;;54.23;;
14088;SDS011;7120;52.890;6.040;2023-06-22T01:30:21;76.70;;;44.63;;
14088;SDS011;7120;52.890;6.040;2023-06-22T01:32:47;89.37;;;44.40;;
14088;SDS011;7120;52.890;6.040;2023-06-22T01:35:14;59.23;;;38.73;;
14088;SDS011;7120;52.890;6.040;2023-06-22T01:37:40;55.17;;;38.43;;
14088;SDS011;7120;52.890;6.040;2023-06-22T01:40:06;50.93;;;38.00;;
14088;SDS011;7120;52.890;6.040;2023-06-22T01:42:33;58.47;;;34.67;;
14088;SDS011;7120;52.890;6.040;2023-06-22T01:45:00;71.57;;;35.63;;
14088;SDS011;7120;52.890;6.040;2023-06-22T01:47:26;52.77;;;37.03;;
14088;SDS011;7120;52.890;6.040;2023-06-22T01:49:53;60.93;;;37.50;;
14088;SDS011;7120;52.890;6.040;2023-06-22T01:52:19;55.37;;;33.80;;
14088;SDS011;7120;52.890;6.040;2023-06-22T01:54:46;52.70;;;33.97;;
14088;SDS011;7120;52.890;6.040;2023-06-22T01:57:11;35.00;;;29.80;;
14088;SDS011;7120;52.890;6.040;2023-06-22T01:59:39;40.37;;;32.87;;
14088;SDS011;7120;52.890;6.040;2023-06-22T02:02:08;40.50;;;34.00;;
14088;SDS011;7120;52.890;6.040;2023-06-22T02:04:42;44.33;;;34.47;;
14088;SDS011;7120;52.890;6.040;2023-06-22T02:07:35;57.97;;;35.23;;
14088;SDS011;7120;52.890;6.040;2023-06-22T02:10:23;37.83;;;30.60;;
14088;SDS011;7120;52.890;6.040;2023-06-22T02:12:50;68.27;;;37.47;;
14088;SDS011;7120;52.890;6.040;2023-06-22T02:15:16;67.80;;;41.83;;
14088;SDS011;7120;52.890;6.040;2023-06-22T02:17:42;77.07;;;46.37;;
14088;SDS011;7120;52.890;6.040;2023-06-22T02:20:13;76.27;;;42.17;;
14088;SDS011;7120;52.890;6.040;2023-06-22T02:22:39;66.63;;;40.63;;
14088;SDS011;7120;52.890;6.040;2023-06-22T02:25:04;58.30;;;37.67;;
14088;SDS011;7120;52.890;6.040;2023-06-22T02:27:30;75.60;;;43.57;;
14088;SDS011;7120;52.890;6.040;2023-06-22T02:29:56;82.07;;;44.70;;
14088;SDS011;7120;52.890;6.040;2023-06-22T02:32:22;79.90;;;44.70;;
14088;SDS011;7120;52.890;6.040;2023-06-22T02:34:47;73.67;;;44.20;;
14088;SDS011;7120;52.890;6.040;2023-06-22T02:37:13;91.37;;;46.37;;
14088;SDS011;7120;52.890;6.040;2023-06-22T02:39:42;73.60;;;44.10;;
14088;SDS011;7120;52.890;6.040;2023-06-22T02:42:07;81.67;;;45.20;;
14088;SDS011;7120;52.890;6.040;2023-06-22T02:44:33;101.47;;;51.83;;
14088;SDS011;7120;52.890;6.040;2023-06-22T02:46:58;95.83;;;54.60;;
14088;SDS011;7120;52.890;6.040;2023-06-22T02:49:24;80.00;;;51.00;;
14088;SDS011;7120;52.890;6.040;2023-06-22T02:51:49;72.27;;;47.57;;
14088;SDS011;7120;52.890;6.040;2023-06-22T02:54:15;79.93;;;51.80;;
14088;SDS011;7120;52.890;6.040;2023-06-22T02:56:41;119.87;;;55.93;;
14088;SDS011;7120;52.890;6.040;2023-06-22T02:59:08;92.07;;;48.37;;
14088;SDS011;7120;52.890;6.040;2023-06-22T03:01:35;137.70;;;62.63;;
14088;SDS011;7120;52.890;6.040;2023-06-22T03:04:05;135.50;;;66.27;;
14088;SDS011;7120;52.890;6.040;2023-06-22T03:06:33;124.83;;;66.60;;
14088;SDS011;7120;52.890;6.040;2023-06-22T03:09:00;163.90;;;62.90;;
14088;SDS011;7120;52.890;6.040;2023-06-22T03:11:28;109.53;;;51.80;;
14088;SDS011;7120;52.890;6.040;2023-06-22T03:13:53;85.23;;;48.10;;
14088;SDS011;7120;52.890;6.040;2023-06-22T03:16:19;119.57;;;56.90;;
14088;SDS011;7120;52.890;6.040;2023-06-22T03:18:44;141.33;;;62.53;;
14088;SDS011;7120;52.890;6.040;2023-06-22T03:21:10;87.93;;;52.43;;
14088;SDS011;7120;52.890;6.040;2023-06-22T03:23:35;115.97;;;51.23;;
14088;SDS011;7120;52.890;6.040;2023-06-22T03:26:01;113.00;;;53.17;;
14088;SDS011;7120;52.890;6.040;2023-06-22T03:28:27;120.93;;;52.97;;
14088;SDS011;7120;52.890;6.040;2023-06-22T03:30:53;97.77;;;51.10;;
14088;SDS011;7120;52.890;6.040;2023-06-22T03:33:18;105.20;;;54.43;;
14088;SDS011;7120;52.890;6.040;2023-06-22T03:35:44;117.27;;;56.53;;
14088;SDS011;7120;52.890;6.040;2023-06-22T03:38:09;110.07;;;58.93;;
14088;SDS011;7120;52.890;6.040;2023-06-22T03:40:34;90.83;;;53.00;;
14088;SDS011;7120;52.890;6.040;2023-06-22T03:43:00;77.37;;;51.23;;
14088;SDS011;7120;52.890;6.040;2023-06-22T03:45:25;95.63;;;54.93;;
14088;SDS011;7120;52.890;6.040;2023-06-22T03:47:50;90.67;;;55.07;;
14088;SDS011;7120;52.890;6.040;2023-06-22T03:50:16;94.80;;;54.30;;
14088;SDS011;7120;52.890;6.040;2023-06-22T03:52:41;92.93;;;54.97;;
14088;SDS011;7120;52.890;6.040;2023-06-22T03:55:07;81.93;;;50.50;;
14088;SDS011;7120;52.890;6.040;2023-06-22T03:57:33;82.77;;;52.60;;
14088;SDS011;7120;52.890;6.040;2023-06-22T03:59:59;87.20;;;51.47;;
14088;SDS011;7120;52.890;6.040;2023-06-22T04:02:25;87.23;;;53.10;;
14088;SDS011;7120;52.890;6.040;2023-06-22T04:04:51;79.53;;;51.43;;
14088;SDS011;7120;52.890;6.040;2023-06-22T04:07:16;92.83;;;53.93;;
14088;SDS011;7120;52.890;6.040;2023-06-22T04:09:43;88.90;;;54.90;;
14088;SDS011;7120;52.890;6.040;2023-06-22T04:12:08;76.83;;;51.00;;
14088;SDS011;7120;52.890;6.040;2023-06-22T04:14:34;74.87;;;50.40;;
14088;SDS011;7120;52.890;6.040;2023-06-22T04:16:59;76.30;;;51.10;;
14088;SDS011;7120;52.890;6.040;2023-06-22T04:19:25;87.47;;;51.13;;
14088;SDS011;7120;52.890;6.040;2023-06-22T04:21:50;89.23;;;51.77;;
14088;SDS011;7120;52.890;6.040;2023-06-22T04:24:16;86.27;;;53.50;;
14088;SDS011;7120;52.890;6.040;2023-06-22T04:26:41;86.97;;;53.63;;
14088;SDS011;7120;52.890;6.040;2023-06-22T04:29:12;83.87;;;55.10;;
14088;SDS011;7120;52.890;6.040;2023-06-22T04:31:38;84.77;;;55.40;;
14088;SDS011;7120;52.890;6.040;2023-06-22T04:34:04;88.53;;;56.37;;
14088;SDS011;7120;52.890;6.040;2023-06-22T04:36:35;77.73;;;55.00;;
14088;SDS011;7120;52.890;6.040;2023-06-22T04:39:05;83.33;;;56.20;;
14088;SDS011;7120;52.890;6.040;2023-06-22T04:41:31;74.47;;;54.10;;
14088;SDS011;7120;52.890;6.040;2023-06-22T04:44:06;73.33;;;53.73;;
14088;SDS011;7120;52.890;6.040;2023-06-22T04:46:32;57.83;;;49.00;;
14088;SDS011;7120;52.890;6.040;2023-06-22T04:49:00;61.93;;;49.57;;
14088;SDS011;7120;52.890;6.040;2023-06-22T04:51:26;48.07;;;42.70;;
14088;SDS011;7120;52.890;6.040;2023-06-22T04:53:55;49.73;;;44.23;;
14088;SDS011;7120;52.890;6.040;2023-06-22T04:56:26;51.13;;;42.17;;
14088;SDS011;7120;52.890;6.040;2023-06-22T04:58:53;49.60;;;44.17;;
14088;SDS011;7120;52.890;6.040;2023-06-22T05:01:22;47.90;;;42.80;;
14088;SDS011;7120;52.890;6.040;2023-06-22T05:03:48;46.50;;;41.50;;
14088;SDS011;7120;52.890;6.040;2023-06-22T05:06:13;47.30;;;42.30;;
14088;SDS011;7120;52.890;6.040;2023-06-22T05:08:39;46.10;;;41.30;;
14088;SDS011;7120;52.890;6.040;2023-06-22T05:11:05;45.83;;;41.17;;
14088;SDS011;7120;52.890;6.040;2023-06-22T05:13:30;45.90;;;41.10;;
14088;SDS011;7120;52.890;6.040;2023-06-22T05:15:56;46.07;;;41.40;;
14088;SDS011;7120;52.890;6.040;2023-06-22T05:18:26;44.53;;;39.73;;
14088;SDS011;7120;52.890;6.040;2023-06-22T05:20:55;43.97;;;39.37;;
14088;SDS011;7120;52.890;6.040;2023-06-22T05:23:21;46.03;;;41.33;;
14088;SDS011;7120;52.890;6.040;2023-06-22T05:25:46;42.93;;;38.83;;
14088;SDS011;7120;52.890;6.040;2023-06-22T05:28:12;45.73;;;41.00;;
14088;SDS011;7120;52.890;6.040;2023-06-22T05:30:37;44.80;;;40.20;;
14088;SDS011;7120;52.890;6.040;2023-06-22T05:33:03;43.50;;;39.00;;
14088;SDS011;7120;52.890;6.040;2023-06-22T05:35:28;43.60;;;38.83;;
14088;SDS011;7120;52.890;6.040;2023-06-22T05:37:54;43.80;;;38.80;;
14088;SDS011;7120;52.890;6.040;2023-06-22T05:40:20;42.33;;;38.00;;
14088;SDS011;7120;52.890;6.040;2023-06-22T05:42:46;43.63;;;39.07;;
14088;SDS011;7120;52.890;6.040;2023-06-22T05:45:11;41.37;;;37.20;;
14088;SDS011;7120;52.890;6.040;2023-06-22T05:47:37;39.87;;;35.77;;
14088;SDS011;7120;52.890;6.040;2023-06-22T05:50:02;44.23;;;36.57;;
14088;SDS011;7120;52.890;6.040;2023-06-22T05:52:31;40.13;;;36.07;;
14088;SDS011;7120;52.890;6.040;2023-06-22T05:54:57;38.73;;;34.97;;
14088;SDS011;7120;52.890;6.040;2023-06-22T05:57:24;38.57;;;34.77;;
14088;SDS011;7120;52.890;6.040;2023-06-22T05:59:49;38.23;;;34.23;;
14088;SDS011;7120;52.890;6.040;2023-06-22T06:02:15;37.70;;;33.80;;
14088;SDS011;7120;52.890;6.040;2023-06-22T06:04:40;34.33;;;30.93;;
14088;SDS011;7120;52.890;6.040;2023-06-22T06:07:06;34.13;;;30.60;;
14088;SDS011;7120;52.890;6.040;2023-06-22T06:09:32;34.10;;;30.90;;
14088;SDS011;7120;52.890;6.040;2023-06-22T06:11:57;31.77;;;28.93;;
14088;SDS011;7120;52.890;6.040;2023-06-22T06:14:22;31.37;;;28.17;;
14088;SDS011;7120;52.890;6.040;2023-06-22T06:16:48;31.50;;;28.50;;
14088;SDS011;7120;52.890;6.040;2023-06-22T06:19:14;30.13;;;27.43;;
14088;SDS011;7120;52.890;6.040;2023-06-22T06:21:39;27.37;;;24.97;;
14088;SDS011;7120;52.890;6.040;2023-06-22T06:24:05;28.23;;;25.63;;
14088;SDS011;7120;52.890;6.040;2023-06-22T06:26:30;26.67;;;24.27;;
14088;SDS011;7120;52.890;6.040;2023-06-22T06:28:59;26.37;;;24.03;;
14088;SDS011;7120;52.890;6.040;2023-06-22T06:31:25;25.47;;;23.07;;
14088;SDS011;7120;52.890;6.040;2023-06-22T06:33:53;23.37;;;21.37;;
14088;SDS011;7120;52.890;6.040;2023-06-22T06:36:19;24.30;;;22.20;;
14088;SDS011;7120;52.890;6.040;2023-06-22T06:38:44;23.37;;;21.37;;
14088;SDS011;7120;52.890;6.040;2023-06-22T06:41:12;23.07;;;21.07;;
14088;SDS011;7120;52.890;6.040;2023-06-22T06:43:39;22.40;;;20.30;;
14088;SDS011;7120;52.890;6.040;2023-06-22T06:46:04;22.20;;;20.20;;
14088;SDS011;7120;52.890;6.040;2023-06-22T06:48:30;21.00;;;19.10;;
14088;SDS011;7120;52.890;6.040;2023-06-22T06:50:55;20.90;;;19.10;;
14088;SDS011;7120;52.890;6.040;2023-06-22T06:53:21;21.20;;;19.30;;
14088;SDS011;7120;52.890;6.040;2023-06-22T06:55:46;19.83;;;18.07;;
14088;SDS011;7120;52.890;6.040;2023-06-22T06:58:11;20.40;;;18.70;;
14088;SDS011;7120;52.890;6.040;2023-06-22T07:00:38;20.83;;;18.73;;
14088;SDS011;7120;52.890;6.040;2023-06-22T07:03:04;18.73;;;17.10;;
14088;SDS011;7120;52.890;6.040;2023-06-22T07:05:30;19.40;;;17.70;;
14088;SDS011;7120;52.890;6.040;2023-06-22T07:07:55;19.63;;;17.93;;
14088;SDS011;7120;52.890;6.040;2023-06-22T07:10:21;18.07;;;16.53;;
14088;SDS011;7120;52.890;6.040;2023-06-22T07:12:46;17.30;;;15.70;;
14088;SDS011;7120;52.890;6.040;2023-06-22T07:15:12;16.97;;;15.47;;
14088;SDS011;7120;52.890;6.040;2023-06-22T07:17:38;16.00;;;14.70;;
14088;SDS011;7120;52.890;6.040;2023-06-22T07:20:07;16.13;;;14.63;;
14088;SDS011;7120;52.890;6.040;2023-06-22T07:22:35;16.00;;;14.60;;
14088;SDS011;7120;52.890;6.040;2023-06-22T07:25:01;16.33;;;14.93;;
14088;SDS011;7120;52.890;6.040;2023-06-22T07:27:29;16.20;;;14.73;;
14088;SDS011;7120;52.890;6.040;2023-06-22T07:30:00;15.90;;;14.50;;
14088;SDS011;7120;52.890;6.040;2023-06-22T07:32:25;15.40;;;14.00;;
14088;SDS011;7120;52.890;6.040;2023-06-22T07:34:51;16.07;;;14.63;;
14088;SDS011;7120;52.890;6.040;2023-06-22T07:37:16;16.33;;;14.73;;
14088;SDS011;7120;52.890;6.040;2023-06-22T07:39:41;14.93;;;13.53;;
14088;SDS011;7120;52.890;6.040;2023-06-22T07:42:07;15.40;;;14.10;;
14088;SDS011;7120;52.890;6.040;2023-06-22T07:44:34;16.45;;;14.73;;
14088;SDS011;7120;52.890;6.040;2023-06-22T07:46:59;15.65;;;14.15;;
14088;SDS011;7120;52.890;6.040;2023-06-22T07:49:25;17.10;;;15.35;;
14088;SDS011;7120;52.890;6.040;2023-06-22T07:51:50;16.67;;;15.07;;
14088;SDS011;7120;52.890;6.040;2023-06-22T07:54:15;16.53;;;15.03;;
14088;SDS011;7120;52.890;6.040;2023-06-22T07:56:42;17.90;;;16.08;;
14088;SDS011;7120;52.890;6.040;2023-06-22T07:59:08;16.75;;;15.25;;
14088;SDS011;7120;52.890;6.040;2023-06-22T08:01:33;17.30;;;15.73;;
14088;SDS011;7120;52.890;6.040;2023-06-22T08:03:58;16.85;;;15.30;;
14088;SDS011;7120;52.890;6.040;2023-06-22T08:06:24;17.50;;;15.98;;
14088;SDS011;7120;52.890;6.040;2023-06-22T08:08:50;17.83;;;16.23;;
14088;SDS011;7120;52.890;6.040;2023-06-22T08:11:18;18.00;;;16.30;;
14088;SDS011;7120;52.890;6.040;2023-06-22T08:13:44;18.30;;;16.60;;
14088;SDS011;7120;52.890;6.040;2023-06-22T08:16:09;18.05;;;16.35;;
14088;SDS011;7120;52.890;6.040;2023-06-22T08:18:35;17.95;;;16.25;;
14088;SDS011;7120;52.890;6.040;2023-06-22T08:21:00;18.45;;;16.75;;
14088;SDS011;7120;52.890;6.040;2023-06-22T08:23:26;17.60;;;15.98;;
14088;SDS011;7120;52.890;6.040;2023-06-22T08:25:51;18.25;;;16.40;;
14088;SDS011;7120;52.890;6.040;2023-06-22T08:28:17;18.55;;;16.77;;
14088;SDS011;7120;52.890;6.040;2023-06-22T08:30:42;16.52;;;15.02;;
14088;SDS011;7120;52.890;6.040;2023-06-22T08:33:07;17.40;;;15.70;;
14088;SDS011;7120;52.890;6.040;2023-06-22T08:35:33;16.85;;;15.32;;
14088;SDS011;7120;52.890;6.040;2023-06-22T08:37:58;16.35;;;14.75;;
14088;SDS011;7120;52.890;6.040;2023-06-22T08:40:25;17.38;;;15.70;;
14088;SDS011;7120;52.890;6.040;2023-06-22T08:42:50;16.60;;;15.10;;
14088;SDS011;7120;52.890;6.040;2023-06-22T08:45:16;16.02;;;14.63;;
14088;SDS011;7120;52.890;6.040;2023-06-22T08:47:41;16.80;;;15.30;;
14088;SDS011;7120;52.890;6.040;2023-06-22T08:50:10;16.35;;;14.93;;
14088;SDS011;7120;52.890;6.040;2023-06-22T08:52:37;15.75;;;14.15;;
14088;SDS011;7120;52.890;6.040;2023-06-22T08:55:06;16.33;;;14.88;;
14088;SDS011;7120;52.890;6.040;2023-06-22T08:57:32;16.23;;;14.57;;
14088;SDS011;7120;52.890;6.040;2023-06-22T08:59:57;16.50;;;15.00;;
14088;SDS011;7120;52.890;6.040;2023-06-22T09:02:24;15.38;;;13.82;;
14088;SDS011;7120;52.890;6.040;2023-06-22T09:04:50;16.02;;;14.50;;
14088;SDS011;7120;52.890;6.040;2023-06-22T09:07:20;15.48;;;14.07;;
14088;SDS011;7120;52.890;6.040;2023-06-22T09:09:50;15.15;;;13.75;;
14088;SDS011;7120;52.890;6.040;2023-06-22T09:12:16;14.52;;;13.13;;
14088;SDS011;7120;52.890;6.040;2023-06-22T09:14:41;13.95;;;12.63;;
14088;SDS011;7120;52.890;6.040;2023-06-22T09:17:07;14.02;;;12.73;;
14088;SDS011;7120;52.890;6.040;2023-06-22T09:19:32;13.85;;;12.48;;
14088;SDS011;7120;52.890;6.040;2023-06-22T09:21:58;15.07;;;13.68;;
14088;SDS011;7120;52.890;6.040;2023-06-22T09:24:23;14.60;;;13.20;;
14088;SDS011;7120;52.890;6.040;2023-06-22T09:26:48;13.80;;;12.60;;
14088;SDS011;7120;52.890;6.040;2023-06-22T09:29:14;13.85;;;12.57;;
14088;SDS011;7120;52.890;6.040;2023-06-22T09:31:39;14.45;;;12.93;;
14088;SDS011;7120;52.890;6.040;2023-06-22T09:34:04;11.60;;;10.68;;
14088;SDS011;7120;52.890;6.040;2023-06-22T09:36:30;11.63;;;10.55;;
14088;SDS011;7120;52.890;6.040;2023-06-22T09:38:55;12.82;;;11.55;;
14088;SDS011;7120;52.890;6.040;2023-06-22T09:41:23;11.68;;;10.75;;
14088;SDS011;7120;52.890;6.040;2023-06-22T09:43:49;10.85;;;9.85;;
14088;SDS011;7120;52.890;6.040;2023-06-22T09:46:15;10.82;;;9.93;;
14088;SDS011;7120;52.890;6.040;2023-06-22T09:48:41;11.82;;;10.57;;
14088;SDS011;7120;52.890;6.040;2023-06-22T09:51:06;11.52;;;10.20;;
14088;SDS011;7120;52.890;6.040;2023-06-22T09:53:31;11.25;;;10.23;;
14088;SDS011;7120;52.890;6.040;2023-06-22T09:55:57;11.63;;;10.40;;
14088;SDS011;7120;52.890;6.040;2023-06-22T09:58:23;12.77;;;11.77;;
14088;SDS011;7120;52.890;6.040;2023-06-22T10:00:48;11.90;;;10.90;;
14088;SDS011;7120;52.890;6.040;2023-06-22T10:03:13;11.90;;;10.80;;
14088;SDS011;7120;52.890;6.040;2023-06-22T10:05:39;10.88;;;9.77;;
14088;SDS011;7120;52.890;6.040;2023-06-22T10:08:04;11.20;;;10.00;;
14088;SDS011;7120;52.890;6.040;2023-06-22T10:10:30;9.60;;;8.68;;
14088;SDS011;7120;52.890;6.040;2023-06-22T10:12:56;10.15;;;9.35;;
14088;SDS011;7120;52.890;6.040;2023-06-22T10:15:22;10.15;;;9.25;;
14088;SDS011;7120;52.890;6.040;2023-06-22T10:17:48;10.70;;;9.60;;
14088;SDS011;7120;52.890;6.040;2023-06-22T10:20:14;10.00;;;9.00;;
14088;SDS011;7120;52.890;6.040;2023-06-22T10:22:40;12.13;;;10.05;;
14088;SDS011;7120;52.890;6.040;2023-06-22T10:25:07;12.27;;;11.07;;
14088;SDS011;7120;52.890;6.040;2023-06-22T10:27:33;10.52;;;9.73;;
14088;SDS011;7120;52.890;6.040;2023-06-22T10:29:58;9.90;;;8.90;;
14088;SDS011;7120;52.890;6.040;2023-06-22T10:32:24;9.48;;;8.60;;
14088;SDS011;7120;52.890;6.040;2023-06-22T10:34:49;8.75;;;8.02;;
14088;SDS011;7120;52.890;6.040;2023-06-22T10:37:14;8.88;;;8.07;;
14088;SDS011;7120;52.890;6.040;2023-06-22T10:39:40;7.53;;;6.82;;
14088;SDS011;7120;52.890;6.040;2023-06-22T10:42:05;8.13;;;7.35;;
14088;SDS011;7120;52.890;6.040;2023-06-22T10:44:31;7.53;;;6.45;;
14088;SDS011;7120;52.890;6.040;2023-06-22T10:46:56;7.63;;;6.50;;
14088;SDS011;7120;52.890;6.040;2023-06-22T10:49:22;8.30;;;7.60;;
14088;SDS011;7120;52.890;6.040;2023-06-22T10:51:47;8.68;;;7.88;;
14088;SDS011;7120;52.890;6.040;2023-06-22T10:54:12;8.60;;;7.70;;
14088;SDS011;7120;52.890;6.040;2023-06-22T10:56:39;6.65;;;6.05;;
14088;SDS011;7120;52.890;6.040;2023-06-22T10:59:05;6.53;;;5.93;;
14088;SDS011;7120;52.890;6.040;2023-06-22T11:01:30;8.80;;;6.65;;
14088;SDS011;7120;52.890;6.040;2023-06-22T11:03:56;5.85;;;5.35;;
14088;SDS011;7120;52.890;6.040;2023-06-22T11:06:22;7.35;;;6.63;;
14088;SDS011;7120;52.890;6.040;2023-06-22T11:08:47;6.95;;;6.28;;
14088;SDS011;7120;52.890;6.040;2023-06-22T11:11:13;7.57;;;6.70;;
14088;SDS011;7120;52.890;6.040;2023-06-22T11:13:38;7.10;;;6.50;;
14088;SDS011;7120;52.890;6.040;2023-06-22T11:16:03;8.13;;;7.35;;
14088;SDS011;7120;52.890;6.040;2023-06-22T11:18:30;7.85;;;7.18;;
14088;SDS011;7120;52.890;6.040;2023-06-22T11:20:56;7.65;;;6.95;;
14088;SDS011;7120;52.890;6.040;2023-06-22T11:23:21;7.53;;;6.85;;
14088;SDS011;7120;52.890;6.040;2023-06-22T11:25:46;6.57;;;5.88;;
14088;SDS011;7120;52.890;6.040;2023-06-22T11:28:12;8.93;;;6.88;;
14088;SDS011;7120;52.890;6.040;2023-06-22T11:30:38;7.82;;;7.03;;
14088;SDS011;7120;52.890;6.040;2023-06-22T11:33:03;7.10;;;6.40;;
14088;SDS011;7120;52.890;6.040;2023-06-22T11:35:28;7.05;;;6.38;;
14088;SDS011;7120;52.890;6.040;2023-06-22T11:37:54;8.23;;;7.35;;
14088;SDS011;7120;52.890;6.040;2023-06-22T11:40:21;7.13;;;6.43;;
14088;SDS011;7120;52.890;6.040;2023-06-22T11:42:47;9.25;;;7.15;;
14088;SDS011;7120;52.890;6.040;2023-06-22T11:45:13;6.53;;;6.03;;
14088;SDS011;7120;52.890;6.040;2023-06-22T11:47:38;7.50;;;6.68;;
14088;SDS011;7120;52.890;6.040;2023-06-22T11:50:04;5.88;;;5.38;;
14088;SDS011;7120;52.890;6.040;2023-06-22T11:52:30;6.88;;;6.18;;
14088;SDS011;7120;52.890;6.040;2023-06-22T11:54:55;5.55;;;5.03;;
14088;SDS011;7120;52.890;6.040;2023-06-22T11:57:21;6.40;;;5.78;;
14088;SDS011;7120;52.890;6.040;2023-06-22T11:59:46;7.03;;;6.32;;
14088;SDS011;7120;52.890;6.040;2023-06-22T12:02:12;6.10;;;5.50;;
14088;SDS011;7120;52.890;6.040;2023-06-22T12:04:37;6.85;;;5.95;;
14088;SDS011;7120;52.890;6.040;2023-06-22T12:07:03;6.70;;;5.95;;
14088;SDS011;7120;52.890;6.040;2023-06-22T12:09:28;6.05;;;5.55;;
14088;SDS011;7120;52.890;6.040;2023-06-22T12:11:54;6.70;;;5.90;;
14088;SDS011;7120;52.890;6.040;2023-06-22T12:14:19;6.30;;;5.65;;
14088;SDS011;7120;52.890;6.040;2023-06-22T12:16:44;5.20;;;4.80;;
14088;SDS011;7120;52.890;6.040;2023-06-22T12:19:10;6.97;;;6.15;;
14088;SDS011;7120;52.890;6.040;2023-06-22T12:21:37;6.53;;;5.78;;
14088;SDS011;7120;52.890;6.040;2023-06-22T12:24:02;6.30;;;5.65;;
14088;SDS011;7120;52.890;6.040;2023-06-22T12:26:28;6.03;;;5.45;;
14088;SDS011;7120;52.890;6.040;2023-06-22T12:28:53;6.10;;;5.50;;
14088;SDS011;7120;52.890;6.040;2023-06-22T12:31:19;6.80;;;5.63;;
14088;SDS011;7120;52.890;6.040;2023-06-22T12:33:44;6.70;;;6.03;;
14088;SDS011;7120;52.890;6.040;2023-06-22T12:36:09;7.00;;;6.30;;
14088;SDS011;7120;52.890;6.040;2023-06-22T12:38:35;6.40;;;5.90;;
14088;SDS011;7120;52.890;6.040;2023-06-22T12:41:00;7.13;;;5.95;;
14088;SDS011;7120;52.890;6.040;2023-06-22T12:43:26;7.38;;;6.78;;
14088;SDS011;7120;52.890;6.040;2023-06-22T12:45:51;5.60;;;5.10;;
14088;SDS011;7120;52.890;6.040;2023-06-22T12:48:16;5.32;;;4.82;;
14088;SDS011;7120;52.890;6.040;2023-06-22T12:50:42;6.45;;;5.75;;
14088;SDS011;7120;52.890;6.040;2023-06-22T12:53:07;6.15;;;5.53;;
14088;SDS011;7120;52.890;6.040;2023-06-22T12:55:33;6.18;;;5.43;;
14088;SDS011;7120;52.890;6.040;2023-06-22T12:57:58;5.38;;;4.93;;
14088;SDS011;7120;52.890;6.040;2023-06-22T13:00:24;5.90;;;5.38;;
14088;SDS011;7120;52.890;6.040;2023-06-22T13:02:49;6.60;;;5.90;;
14088;SDS011;7120;52.890;6.040;2023-06-22T13:05:14;7.05;;;6.45;;
14088;SDS011;7120;52.890;6.040;2023-06-22T13:07:40;6.43;;;5.88;;
14088;SDS011;7120;52.890;6.040;2023-06-22T13:10:07;7.32;;;6.50;;
14088;SDS011;7120;52.890;6.040;2023-06-22T13:12:32;6.93;;;6.32;;
14088;SDS011;7120;52.890;6.040;2023-06-22T13:14:58;6.03;;;5.53;;
14088;SDS011;7120;52.890;6.040;2023-06-22T13:17:23;6.50;;;5.82;;
14088;SDS011;7120;52.890;6.040;2023-06-22T13:19:49;6.97;;;6.30;;
14088;SDS011;7120;52.890;6.040;2023-06-22T13:22:28;9.68;;;7.25;;
14088;SDS011;7120;52.890;6.040;2023-06-22T13:24:56;7.70;;;7.00;;
14088;SDS011;7120;52.890;6.040;2023-06-22T13:27:22;7.50;;;6.80;;
14088;SDS011;7120;52.890;6.040;2023-06-22T13:29:48;8.70;;;7.78;;
14088;SDS011;7120;52.890;6.040;2023-06-22T13:32:13;8.05;;;7.38;;
14088;SDS011;7120;52.890;6.040;2023-06-22T13:34:38;7.53;;;6.83;;
14088;SDS011;7120;52.890;6.040;2023-06-22T13:37:04;8.20;;;7.47;;
14088;SDS011;7120;52.890;6.040;2023-06-22T13:39:30;8.90;;;7.93;;
14088;SDS011;7120;52.890;6.040;2023-06-22T13:41:55;8.97;;;8.07;;
14088;SDS011;7120;52.890;6.040;2023-06-22T13:44:21;9.83;;;7.13;;
14088;SDS011;7120;52.890;6.040;2023-06-22T13:46:47;8.10;;;7.40;;
14088;SDS011;7120;52.890;6.040;2023-06-22T13:49:12;8.52;;;7.70;;
14088;SDS011;7120;52.890;6.040;2023-06-22T13:51:38;9.23;;;8.07;;
14088;SDS011;7120;52.890;6.040;2023-06-22T13:54:03;8.70;;;7.77;;
14088;SDS011;7120;52.890;6.040;2023-06-22T13:56:29;9.73;;;8.73;;
14088;SDS011;7120;52.890;6.040;2023-06-22T13:58:54;11.80;;;9.93;;
14088;SDS011;7120;52.890;6.040;2023-06-22T14:01:19;14.53;;;10.70;;
14088;SDS011;7120;52.890;6.040;2023-06-22T14:03:45;12.57;;;11.43;;
14088;SDS011;7120;52.890;6.040;2023-06-22T14:06:12;11.57;;;10.53;;
14088;SDS011;7120;52.890;6.040;2023-06-22T14:08:37;12.23;;;11.10;;
14088;SDS011;7120;52.890;6.040;2023-06-22T14:11:03;11.50;;;10.40;;
14088;SDS011;7120;52.890;6.040;2023-06-22T14:13:28;11.50;;;10.40;;
14088;SDS011;7120;52.890;6.040;2023-06-22T14:15:54;12.03;;;10.83;;
14088;SDS011;7120;52.890;6.040;2023-06-22T14:18:19;13.80;;;10.67;;
14088;SDS011;7120;52.890;6.040;2023-06-22T14:20:47;12.43;;;11.23;;
14088;SDS011;7120;52.890;6.040;2023-06-22T14:23:13;10.33;;;9.43;;
14088;SDS011;7120;52.890;6.040;2023-06-22T14:25:39;11.93;;;9.83;;
14088;SDS011;7120;52.890;6.040;2023-06-22T14:28:04;11.30;;;9.90;;
14088;SDS011;7120;52.890;6.040;2023-06-22T14:30:30;10.13;;;9.13;;
14088;SDS011;7120;52.890;6.040;2023-06-22T14:32:55;9.50;;;8.70;;
14088;SDS011;7120;52.890;6.040;2023-06-22T14:35:21;10.17;;;9.17;;
14088;SDS011;7120;52.890;6.040;2023-06-22T14:37:46;11.07;;;10.00;;
14088;SDS011;7120;52.890;6.040;2023-06-22T14:40:12;9.47;;;8.37;;
14088;SDS011;7120;52.890;6.040;2023-06-22T14:42:37;9.17;;;8.37;;